INFORMACIÓN METAR y TAF
METAR FOR GCTS
ADDS - METARS form results

(0043 UTC 14 June 2021)
Data provider http://aviationweather.gov/metar/data/
 
METAR text: GCTS 140030Z 06012KT 9999 FEW030 20/16 Q1021 NOSIG
Conditions at: GCTS (TENERIFE SUR/REI, ES) observed 0030 UTC 14 June 2021
Temperature: 20.0°C (68°F)
Dewpoint: 16.0°C (61°F) [RH = 78%]
Pressure (altimeter): 30.15 inches Hg (1021.0 mb)
Winds: from the ENE (60 degrees) at 14 MPH (12 knots; 6.2 m/s)
Visibility: 6 or more miles (10+ km)
Ceiling: at least 12,000 feet AGL
Clouds: few clouds at 3000 feet AGL
Weather: no significant weather observed at this time

METAR text: GCTS 140000Z 06011KT 9999 FEW030 20/16 Q1021 NOSIG
Conditions at: GCTS (TENERIFE SUR/REI, ES) observed 0000 UTC 14 June 2021
Temperature: 20.0°C (68°F)
Dewpoint: 16.0°C (61°F) [RH = 78%]
Pressure (altimeter): 30.15 inches Hg (1021.0 mb)
Winds: from the ENE (60 degrees) at 13 MPH (11 knots; 5.7 m/s)
Visibility: 6 or more miles (10+ km)
Ceiling: at least 12,000 feet AGL
Clouds: few clouds at 3000 feet AGL
Weather: no significant weather observed at this time

Forecast for: GCTS (TENERIFE SUR/REI, ES)
Text: TAF GCTS 132000Z 1321/1421 06013KT 9999 FEW025 TX25/1414Z TN19/1406Z
Forecast period: 2100 UTC 13 June 2021 to 2100 UTC 14 June 2021
Forecast type: FROM: standard forecast or significant change
Winds: from the ENE (60 degrees) at 15 MPH (13 knots; 6.7 m/s)
Visibility: 6 or more miles (10+ km)
Ceiling: at least 12,000 feet AGL
Clouds: few clouds at 2500 feet AGL
Weather: no significant weather forecast for this period

 MAPA DE AEROPUERTO

 INFORMACIÓN DE PISTA
Pista 08 Longitud 10499 ft Ancho 148 ft
Elevación 187 ft Umbral desplazado 0 ft Rumbo de pista 69
Pista 26 Longitud 10499 ft Ancho 148 ft
Elevación 209 ft Umbral desplazado 0 ft Rumbo de pista 249

 FRECUANCIAS DEL AEROPUERTO
Tipo APP Nombre APP Frecuencia 120.3 MHZ
Tipo ATIS Nombre ATIS Frecuencia 118.675 MHZ
Tipo GND Nombre GND Frecuencia 121.9 MHZ
Tipo TWR Nombre TWR Frecuencia 119 MHZ

 RADIO AYUDAS DEL AEROPUERTO
Tipo NDB Nombre Tenerife Sur Frecuencia 317 KHZ
Tipo VOR-DME Nombre Tenerife Sur Frecuencia 116400 KHZ




Normativa | Spanair Virtual © 2021 |